Time;durP1;ratioP1;P1;durP2;ratioP2;P2;SDS_P1;SDS_P2;PMS_P1;PMS_P2;Temp;Humidity;BMP_temperature;BMP_pressure;BME280_temperature;BME280_humidity;BME280_pressure;Samples;Min_cycle;Max_cycle;Signal;HPM_P1;HPM_P2
2022/05/15 00:00:41;;;;;;;6.43;5.80;;;;;;;;;;4969334;28;20496;-76
2022/05/15 00:03:11;;;;;;;5.60;5.10;;;;;;;;;;4955134;28;20864;-76
2022/05/15 00:05:40;;;;;;;5.50;5.00;;;;;;;;;;4946980;28;20543;-76
2022/05/15 00:08:08;;;;;;;5.43;4.93;;;;;;;;;;4953531;28;20466;-75
2022/05/15 00:10:35;;;;;;;5.53;5.03;;;;;;;;;;4968881;28;20800;-76
2022/05/15 00:13:01;;;;;;;5.20;4.70;;;;;;;;;;4949494;28;20465;-76
2022/05/15 00:15:29;;;;;;;4.73;4.33;;;;;;;;;;4954108;28;20592;-76
2022/05/15 00:17:55;;;;;;;5.70;5.03;;;;;;;;;;4968422;28;20470;-76
2022/05/15 00:20:22;;;;;;;6.27;4.97;;;;;;;;;;4950739;28;20923;-76
2022/05/15 00:22:50;;;;;;;5.70;4.70;;;;;;;;;;4935767;29;20448;-76
2022/05/15 00:25:17;;;;;;;5.20;4.70;;;;;;;;;;4945005;28;20439;-76
2022/05/15 00:27:44;;;;;;;7.00;4.50;;;;;;;;;;4951603;28;20459;-76
2022/05/15 00:30:13;;;;;;;5.07;4.60;;;;;;;;;;4949870;28;20941;-76
2022/05/15 00:32:40;;;;;;;4.80;4.30;;;;;;;;;;4953984;28;20454;-76
2022/05/15 00:35:07;;;;;;;6.00;4.60;;;;;;;;;;4971042;28;20981;-76
2022/05/15 00:37:34;;;;;;;5.97;4.80;;;;;;;;;;4947593;28;20881;-75
2022/05/15 00:40:02;;;;;;;5.37;4.20;;;;;;;;;;4953512;28;20478;-76
2022/05/15 00:42:29;;;;;;;4.47;4.07;;;;;;;;;;4953510;28;20461;-76
2022/05/15 00:44:55;;;;;;;4.87;4.37;;;;;;;;;;4937088;28;20451;-76
2022/05/15 00:47:22;;;;;;;5.30;4.13;;;;;;;;;;4943535;28;20467;-75
2022/05/15 00:49:49;;;;;;;4.23;3.83;;;;;;;;;;4942480;28;20460;-76
2022/05/15 00:52:18;;;;;;;5.37;4.10;;;;;;;;;;4971006;28;20457;-76
2022/05/15 00:54:46;;;;;;;6.43;3.87;;;;;;;;;;4971673;28;20481;-76
2022/05/15 00:57:17;;;;;;;5.43;4.00;;;;;;;;;;4938827;28;20451;-75
2022/05/15 00:59:49;;;;;;;4.00;3.60;;;;;;;;;;4947273;28;20497;-75
2022/05/15 01:02:17;;;;;;;4.47;3.83;;;;;;;;;;4937824;28;20454;-76
2022/05/15 01:04:46;;;;;;;4.60;3.83;;;;;;;;;;4934056;28;20496;-76
2022/05/15 01:07:13;;;;;;;5.27;4.77;;;;;;;;;;4938789;29;20446;-76
2022/05/15 01:09:41;;;;;;;5.67;5.17;;;;;;;;;;4956356;28;20470;-76
2022/05/15 01:12:08;;;;;;;10.33;5.57;;;;;;;;;;4941436;28;20447;-76
2022/05/15 01:14:36;;;;;;;5.80;5.20;;;;;;;;;;4936219;28;20484;-76
2022/05/15 01:17:03;;;;;;;8.87;5.40;;;;;;;;;;4952733;28;20537;-76
2022/05/15 01:19:31;;;;;;;5.67;5.13;;;;;;;;;;4927626;29;20490;-76
2022/05/15 01:22:00;;;;;;;5.33;4.60;;;;;;;;;;4967292;28;20454;-76
2022/05/15 01:24:28;;;;;;;6.43;4.90;;;;;;;;;;4937048;28;20453;-75
2022/05/15 01:26:55;;;;;;;7.50;5.53;;;;;;;;;;4967241;28;20458;-76
2022/05/15 01:29:28;;;;;;;5.30;4.80;;;;;;;;;;4933214;28;20470;-75
2022/05/15 01:31:55;;;;;;;6.40;4.47;;;;;;;;;;4934594;29;20436;-75
2022/05/15 01:34:21;;;;;;;4.97;4.37;;;;;;;;;;4964121;28;20454;-75
2022/05/15 01:36:49;;;;;;;5.93;5.23;;;;;;;;;;4930951;28;20553;-75
2022/05/15 01:39:17;;;;;;;5.13;4.63;;;;;;;;;;4932463;28;20466;-75
2022/05/15 01:41:43;;;;;;;5.70;5.20;;;;;;;;;;4921774;29;20538;-75
2022/05/15 01:44:10;;;;;;;5.47;4.50;;;;;;;;;;4957334;28;20455;-75
2022/05/15 01:46:37;;;;;;;5.17;4.50;;;;;;;;;;4940540;28;20531;-75
2022/05/15 01:49:09;;;;;;;6.70;4.50;;;;;;;;;;4925647;28;20561;-75
2022/05/15 01:51:39;;;;;;;4.23;3.93;;;;;;;;;;4930593;28;20458;-75
2022/05/15 01:54:05;;;;;;;6.00;5.40;;;;;;;;;;4969564;28;20462;-75
2022/05/15 01:56:34;;;;;;;5.13;4.63;;;;;;;;;;4931519;28;20478;-75
2022/05/15 01:59:00;;;;;;;4.80;4.40;;;;;;;;;;4968033;28;20573;-75
2022/05/15 02:01:27;;;;;;;11.27;4.60;;;;;;;;;;4937913;28;20534;-75
2022/05/15 02:03:54;;;;;;;4.97;4.47;;;;;;;;;;4934698;28;20462;-75
2022/05/15 02:06:20;;;;;;;5.37;4.63;;;;;;;;;;4929793;28;20505;-75
2022/05/15 02:08:47;;;;;;;5.47;4.60;;;;;;;;;;4969667;28;20509;-75
2022/05/15 02:11:16;;;;;;;4.50;3.93;;;;;;;;;;4955789;28;20431;-75
2022/05/15 02:13:45;;;;;;;5.43;4.47;;;;;;;;;;4938959;28;20459;-75
2022/05/15 02:16:12;;;;;;;4.47;4.07;;;;;;;;;;4954416;28;20509;-75
2022/05/15 02:18:39;;;;;;;4.57;4.17;;;;;;;;;;4970821;28;20462;-75
2022/05/15 02:21:06;;;;;;;5.07;4.60;;;;;;;;;;4950932;29;20490;-75
2022/05/15 02:23:33;;;;;;;5.20;4.70;;;;;;;;;;4952957;28;20444;-75
2022/05/15 02:26:01;;;;;;;5.17;4.50;;;;;;;;;;4955278;28;20434;-75
2022/05/15 02:28:27;;;;;;;5.70;4.37;;;;;;;;;;4931861;29;20455;-75
2022/05/15 02:30:56;;;;;;;4.13;3.73;;;;;;;;;;4939557;28;20457;-75
2022/05/15 02:33:23;;;;;;;5.17;4.53;;;;;;;;;;4968814;28;20933;-75
2022/05/15 02:35:49;;;;;;;5.73;4.27;;;;;;;;;;4938388;28;20532;-75
2022/05/15 02:38:17;;;;;;;5.43;4.03;;;;;;;;;;4934329;28;20467;-75
2022/05/15 02:40:44;;;;;;;4.33;3.83;;;;;;;;;;4938377;28;20442;-75
2022/05/15 02:43:11;;;;;;;4.40;3.30;;;;;;;;;;4938526;28;20454;-75
2022/05/15 02:45:38;;;;;;;4.70;4.30;;;;;;;;;;4939432;28;20438;-75
2022/05/15 02:51:03;;;;;;;4.63;4.23;;;;;;;;;;4934972;28;20459;-75
2022/05/15 02:51:03;;;;;;;5.37;4.47;;;;;;;;;;4934557;29;20436;-75
2022/05/15 02:53:30;;;;;;;4.30;3.90;;;;;;;;;;4935731;29;20446;-76
2022/05/15 02:55:57;;;;;;;4.13;3.83;;;;;;;;;;4955756;28;20538;-75
2022/05/15 02:58:23;;;;;;;5.00;4.43;;;;;;;;;;4965150;28;20541;-74
2022/05/15 03:00:50;;;;;;;5.07;3.70;;;;;;;;;;4939040;28;20933;-76
2022/05/15 03:03:17;;;;;;;6.07;3.30;;;;;;;;;;4958634;28;20454;-75
2022/05/15 03:05:45;;;;;;;5.20;4.70;;;;;;;;;;4938971;28;20461;-75
2022/05/15 03:08:12;;;;;;;4.50;4.03;;;;;;;;;;4957649;28;20447;-75
2022/05/15 03:10:39;;;;;;;3.97;3.67;;;;;;;;;;4965231;28;20446;-75
2022/05/15 03:13:05;;;;;;;8.63;3.80;;;;;;;;;;4953192;28;20863;-76
2022/05/15 03:15:32;;;;;;;4.37;3.97;;;;;;;;;;4957704;28;20466;-74
2022/05/15 03:17:59;;;;;;;4.30;3.30;;;;;;;;;;4972886;28;20434;-74
2022/05/15 03:20:27;;;;;;;6.80;4.53;;;;;;;;;;4942128;29;20482;-75
2022/05/15 03:22:54;;;;;;;5.30;3.80;;;;;;;;;;4922783;29;20474;-75
2022/05/15 03:25:20;;;;;;;4.23;3.33;;;;;;;;;;4938732;29;20439;-74
2022/05/15 03:27:47;;;;;;;5.33;4.10;;;;;;;;;;4942516;28;20451;-74
2022/05/15 03:30:14;;;;;;;3.80;3.40;;;;;;;;;;4938511;29;20942;-74
2022/05/15 03:32:41;;;;;;;4.10;3.70;;;;;;;;;;4956113;29;20439;-75
2022/05/15 03:35:08;;;;;;;5.03;4.00;;;;;;;;;;4956939;28;20442;-74
2022/05/15 03:37:37;;;;;;;4.10;3.70;;;;;;;;;;4951331;28;20539;-75
2022/05/15 03:40:03;;;;;;;4.40;4.00;;;;;;;;;;4922854;29;20542;-74
2022/05/15 03:42:30;;;;;;;5.93;3.67;;;;;;;;;;4938724;29;20543;-75
2022/05/15 03:44:56;;;;;;;4.07;3.67;;;;;;;;;;4938044;29;20447;-74
2022/05/15 03:47:23;;;;;;;3.80;3.40;;;;;;;;;;4959147;28;20470;-75
2022/05/15 03:49:50;;;;;;;10.10;3.40;;;;;;;;;;4936980;29;20443;-74
2022/05/15 03:52:17;;;;;;;4.67;3.57;;;;;;;;;;4936458;28;20452;-74
2022/05/15 03:54:46;;;;;;;4.50;4.00;;;;;;;;;;4956113;28;20478;-75
2022/05/15 03:57:13;;;;;;;4.70;3.70;;;;;;;;;;4942059;28;20530;-75
2022/05/15 03:59:41;;;;;;;3.90;3.50;;;;;;;;;;4951850;29;20842;-75
2022/05/15 04:02:09;;;;;;;4.90;4.27;;;;;;;;;;4938058;29;20451;-75
2022/05/15 04:04:36;;;;;;;4.03;3.60;;;;;;;;;;4942349;28;20477;-75
2022/05/15 04:07:03;;;;;;;4.70;3.83;;;;;;;;;;4937267;29;20451;-75
2022/05/15 04:09:31;;;;;;;3.83;3.53;;;;;;;;;;4950864;28;20949;-74
2022/05/15 04:11:59;;;;;;;4.90;4.50;;;;;;;;;;4937193;29;20451;-75
2022/05/15 04:14:26;;;;;;;4.50;4.10;;;;;;;;;;4921867;29;20513;-74
2022/05/15 04:16:53;;;;;;;4.27;3.87;;;;;;;;;;4940684;28;20471;-75
2022/05/15 04:19:19;;;;;;;4.70;3.50;;;;;;;;;;4948575;28;20515;-74
2022/05/15 04:21:46;;;;;;;4.60;4.20;;;;;;;;;;4925653;29;20549;-75
2022/05/15 04:24:14;;;;;;;4.20;3.80;;;;;;;;;;4939432;28;20447;-74
2022/05/15 04:26:41;;;;;;;5.23;4.40;;;;;;;;;;4973425;28;20541;-76
2022/05/15 04:29:09;;;;;;;4.10;3.70;;;;;;;;;;4960872;28;20562;-76
2022/05/15 04:31:36;;;;;;;4.53;3.63;;;;;;;;;;4921890;29;20467;-75
2022/05/15 04:34:03;;;;;;;3.77;3.37;;;;;;;;;;4947946;28;20497;-75
2022/05/15 04:36:30;;;;;;;4.23;3.73;;;;;;;;;;4954593;28;20506;-75
2022/05/15 04:38:57;;;;;;;5.73;3.90;;;;;;;;;;4962710;28;20545;-74
2022/05/15 04:41:23;;;;;;;4.77;3.47;;;;;;;;;;4937705;29;20456;-76
2022/05/15 04:43:50;;;;;;;6.70;4.30;;;;;;;;;;4954313;28;20866;-76
2022/05/15 04:46:17;;;;;;;4.60;3.97;;;;;;;;;;4952487;28;20855;-74
2022/05/15 04:48:44;;;;;;;4.53;3.87;;;;;;;;;;4949864;28;20500;-74
2022/05/15 04:51:11;;;;;;;5.13;3.60;;;;;;;;;;4956528;28;20438;-74
2022/05/15 04:53:37;;;;;;;4.97;3.70;;;;;;;;;;4955146;28;20458;-74
2022/05/15 04:56:05;;;;;;;3.63;3.33;;;;;;;;;;4946831;28;20962;-74
2022/05/15 04:58:31;;;;;;;4.03;3.50;;;;;;;;;;4965612;28;20544;-74
2022/05/15 05:00:58;;;;;;;6.20;3.70;;;;;;;;;;4973653;28;20439;-74
2022/05/15 05:03:25;;;;;;;3.67;3.03;;;;;;;;;;4951285;28;20455;-74
2022/05/15 05:05:52;;;;;;;3.30;2.53;;;;;;;;;;4964762;28;20478;-75
2022/05/15 05:08:19;;;;;;;5.23;2.90;;;;;;;;;;4954406;28;20478;-75
2022/05/15 05:10:45;;;;;;;3.60;2.63;;;;;;;;;;4957942;28;20458;-74
2022/05/15 05:13:13;;;;;;;4.63;3.50;;;;;;;;;;4967756;28;20459;-74
2022/05/15 05:15:39;;;;;;;3.23;2.73;;;;;;;;;;4968485;28;20818;-76
2022/05/15 05:18:13;;;;;;;4.57;2.67;;;;;;;;;;4982574;28;20504;-76
2022/05/15 05:20:41;;;;;;;2.87;2.67;;;;;;;;;;4943382;28;20449;-76
2022/05/15 05:23:08;;;;;;;3.50;2.70;;;;;;;;;;4954974;28;20562;-76
2022/05/15 05:25:34;;;;;;;4.97;3.43;;;;;;;;;;4955033;28;20453;-76
2022/05/15 05:28:01;;;;;;;3.50;2.50;;;;;;;;;;4953100;28;20501;-76
2022/05/15 05:30:27;;;;;;;3.30;2.40;;;;;;;;;;4937053;28;20446;-76
2022/05/15 05:32:54;;;;;;;4.90;3.23;;;;;;;;;;4972667;28;20441;-76
2022/05/15 05:35:21;;;;;;;6.00;3.33;;;;;;;;;;4954430;28;20434;-76
2022/05/15 05:37:49;;;;;;;4.43;3.23;;;;;;;;;;4946803;28;21010;-76
2022/05/15 05:40:17;;;;;;;3.77;3.23;;;;;;;;;;4936075;29;20457;-76
2022/05/15 05:42:43;;;;;;;3.27;2.73;;;;;;;;;;4953342;29;20771;-76
2022/05/15 05:45:10;;;;;;;2.80;2.60;;;;;;;;;;4954537;28;20569;-76
2022/05/15 05:47:37;;;;;;;2.90;2.60;;;;;;;;;;4940179;28;20456;-76
2022/05/15 05:50:04;;;;;;;4.00;3.33;;;;;;;;;;4954027;28;20550;-76
2022/05/15 05:52:30;;;;;;;3.30;2.73;;;;;;;;;;4966686;28;20449;-76
2022/05/15 05:54:58;;;;;;;3.83;3.40;;;;;;;;;;4986801;28;20442;-74
2022/05/15 05:57:25;;;;;;;9.47;3.13;;;;;;;;;;4955765;28;20471;-74
2022/05/15 05:59:51;;;;;;;2.90;2.50;;;;;;;;;;4955528;28;20499;-74
2022/05/15 06:02:18;;;;;;;4.37;3.07;;;;;;;;;;4955295;28;20478;-75
2022/05/15 06:04:44;;;;;;;4.40;4.00;;;;;;;;;;4952627;28;20457;-74
2022/05/15 06:07:12;;;;;;;3.63;3.30;;;;;;;;;;4927111;28;20441;-74
2022/05/15 06:09:39;;;;;;;4.70;3.50;;;;;;;;;;4968419;28;20465;-74
2022/05/15 06:12:07;;;;;;;4.07;3.37;;;;;;;;;;4962781;28;20435;-74
2022/05/15 06:14:34;;;;;;;4.50;3.63;;;;;;;;;;4954553;28;20819;-74
2022/05/15 06:17:00;;;;;;;3.77;3.23;;;;;;;;;;4958001;28;20552;-75
2022/05/15 06:19:27;;;;;;;3.13;2.83;;;;;;;;;;4951104;28;20460;-74
2022/05/15 06:21:53;;;;;;;3.60;3.30;;;;;;;;;;4957162;28;20454;-75
2022/05/15 06:24:20;;;;;;;4.03;3.37;;;;;;;;;;4967438;28;20511;-75
2022/05/15 06:26:46;;;;;;;4.10;3.37;;;;;;;;;;4954433;28;20439;-75
2022/05/15 06:29:14;;;;;;;4.83;3.50;;;;;;;;;;4959051;28;20957;-75
2022/05/15 06:31:41;;;;;;;4.17;3.50;;;;;;;;;;4952776;29;20426;-75
2022/05/15 06:34:07;;;;;;;4.17;3.37;;;;;;;;;;4963740;28;20442;-75
2022/05/15 06:36:33;;;;;;;4.80;4.10;;;;;;;;;;4971129;28;20819;-75
2022/05/15 06:39:00;;;;;;;3.40;3.10;;;;;;;;;;4961298;28;20467;-75
2022/05/15 06:41:26;;;;;;;4.17;3.77;;;;;;;;;;4958714;28;20568;-75
2022/05/15 06:43:53;;;;;;;3.60;3.30;;;;;;;;;;4958791;28;20916;-75
2022/05/15 06:46:21;;;;;;;4.83;3.60;;;;;;;;;;4972406;28;20450;-76
2022/05/15 06:48:47;;;;;;;4.13;3.73;;;;;;;;;;4939247;29;20525;-76
2022/05/15 06:51:16;;;;;;;3.30;3.00;;;;;;;;;;4976327;28;20916;-76
2022/05/15 06:53:43;;;;;;;3.67;3.10;;;;;;;;;;4995501;28;20540;-75
2022/05/15 06:58:53;;;;;;;4.23;3.20;;;;;;;;;;4948729;29;21047;-75
2022/05/15 07:01:21;;;;;;;4.27;3.03;;;;;;;;;;4956501;29;20438;-75
2022/05/15 07:03:48;;;;;;;3.60;2.93;;;;;;;;;;4953891;28;20486;-75
2022/05/15 07:06:15;;;;;;;4.27;3.10;;;;;;;;;;4956653;28;20502;-75
2022/05/15 07:08:41;;;;;;;4.10;3.00;;;;;;;;;;4955044;29;20545;-75
2022/05/15 07:11:09;;;;;;;4.23;3.60;;;;;;;;;;4923966;29;20444;-75
2022/05/15 07:13:36;;;;;;;4.20;3.80;;;;;;;;;;4937042;29;20444;-75
2022/05/15 07:16:03;;;;;;;3.83;3.40;;;;;;;;;;4928276;29;20450;-76
2022/05/15 07:18:31;;;;;;;5.97;4.90;;;;;;;;;;4938814;29;20527;-76
2022/05/15 07:20:57;;;;;;;4.93;4.40;;;;;;;;;;4949488;28;20459;-75
2022/05/15 07:23:26;;;;;;;5.23;3.87;;;;;;;;;;4953644;29;20553;-75
2022/05/15 07:25:53;;;;;;;5.30;3.60;;;;;;;;;;4956591;29;20499;-76
2022/05/15 07:28:19;;;;;;;3.70;3.40;;;;;;;;;;4923167;29;20449;-76
2022/05/15 07:30:47;;;;;;;4.00;3.47;;;;;;;;;;4937308;29;20865;-75
2022/05/15 07:33:13;;;;;;;3.20;2.90;;;;;;;;;;4946431;29;20544;-75
2022/05/15 07:35:41;;;;;;;3.40;3.10;;;;;;;;;;4937743;29;20462;-75
2022/05/15 07:38:07;;;;;;;4.83;3.33;;;;;;;;;;4937769;28;21013;-75
2022/05/15 07:40:34;;;;;;;5.43;3.00;;;;;;;;;;4954203;29;20537;-74
2022/05/15 07:43:04;;;;;;;4.10;3.23;;;;;;;;;;4953630;29;20546;-74
2022/05/15 07:45:31;;;;;;;4.47;2.83;;;;;;;;;;4918871;29;20552;-74
2022/05/15 07:47:57;;;;;;;3.97;2.80;;;;;;;;;;4930501;29;20433;-74
2022/05/15 07:50:24;;;;;;;3.40;3.10;;;;;;;;;;4919547;29;20458;-74
2022/05/15 07:52:52;;;;;;;3.90;3.20;;;;;;;;;;4944163;29;20462;-74
2022/05/15 07:55:18;;;;;;;5.17;3.10;;;;;;;;;;4955254;29;20439;-74
2022/05/15 07:57:45;;;;;;;2.70;2.50;;;;;;;;;;4955097;29;20911;-75
2022/05/15 08:00:14;;;;;;;3.53;3.23;;;;;;;;;;4963219;28;20562;-76
2022/05/15 08:02:40;;;;;;;3.37;3.10;;;;;;;;;;4945941;28;20450;-75
2022/05/15 08:08:02;;;;;;;6.23;2.77;;;;;;;;;;4956394;28;20450;-76
2022/05/15 08:10:35;;;;;;;3.63;3.33;;;;;;;;;;4952041;28;20487;-78
2022/05/15 08:13:02;;;;;;;2.93;2.73;;;;;;;;;;4955997;28;20636;-75
2022/05/15 08:15:30;;;;;;;6.10;3.00;;;;;;;;;;4964474;28;20462;-75
2022/05/15 08:23:33;;;;;;;3.40;3.10;;;;;;;;;;4973108;28;20479;-75
2022/05/15 08:23:34;;;;;;;3.00;2.77;;;;;;;;;;4956824;28;20485;-75
2022/05/15 08:26:03;;;;;;;3.60;3.27;;;;;;;;;;4957017;28;20469;-75
2022/05/15 08:28:29;;;;;;;4.57;3.23;;;;;;;;;;4956799;28;20541;-75
2022/05/15 08:30:56;;;;;;;4.87;2.83;;;;;;;;;;4974238;28;20874;-74
2022/05/15 08:33:22;;;;;;;4.03;3.50;;;;;;;;;;4963681;28;20549;-75
2022/05/15 08:35:49;;;;;;;4.80;4.23;;;;;;;;;;4974092;28;20481;-74
2022/05/15 08:38:16;;;;;;;4.90;3.47;;;;;;;;;;4973775;28;20481;-75
2022/05/15 08:40:47;;;;;;;3.30;2.80;;;;;;;;;;4956349;28;21008;-75
2022/05/15 08:43:18;;;;;;;3.80;3.40;;;;;;;;;;4957735;28;20466;-75
2022/05/15 08:45:52;;;;;;;4.10;3.30;;;;;;;;;;4974213;28;20427;-75
2022/05/15 08:48:18;;;;;;;3.83;3.50;;;;;;;;;;4974339;28;20763;-75
2022/05/15 08:50:51;;;;;;;3.47;3.17;;;;;;;;;;4939544;28;20683;-74
2022/05/15 08:53:21;;;;;;;4.30;3.30;;;;;;;;;;4955699;28;20450;-74
2022/05/15 08:55:50;;;;;;;3.40;3.20;;;;;;;;;;4956098;28;20434;-74
2022/05/15 08:58:20;;;;;;;3.43;3.10;;;;;;;;;;4954449;28;20485;-75
2022/05/15 09:00:49;;;;;;;4.17;3.50;;;;;;;;;;4945536;29;20440;-75
2022/05/15 09:03:18;;;;;;;4.40;3.57;;;;;;;;;;4946088;29;20452;-75
2022/05/15 09:05:48;;;;;;;3.93;3.30;;;;;;;;;;4947121;28;20526;-75
2022/05/15 09:08:23;;;;;;;4.27;3.33;;;;;;;;;;4954674;28;20458;-75
2022/05/15 09:10:56;;;;;;;3.40;3.10;;;;;;;;;;4936790;29;20510;-74
2022/05/15 09:13:28;;;;;;;7.13;3.40;;;;;;;;;;4954432;29;20443;-74
2022/05/15 09:15:58;;;;;;;3.30;2.97;;;;;;;;;;4956107;28;20802;-75
2022/05/15 09:18:25;;;;;;;3.93;3.43;;;;;;;;;;4972444;28;20487;-74
2022/05/15 09:20:58;;;;;;;3.87;3.00;;;;;;;;;;4945477;28;20467;-75
2022/05/15 09:23:26;;;;;;;3.13;2.83;;;;;;;;;;4967728;28;20460;-74
2022/05/15 09:25:55;;;;;;;4.00;3.17;;;;;;;;;;4973339;28;20439;-74
2022/05/15 09:28:23;;;;;;;3.77;3.47;;;;;;;;;;4973609;28;20439;-74
2022/05/15 09:30:51;;;;;;;4.57;3.30;;;;;;;;;;4945931;28;20832;-74
2022/05/15 09:33:26;;;;;;;4.53;3.17;;;;;;;;;;4972013;28;20588;-74
2022/05/15 09:35:52;;;;;;;3.40;3.10;;;;;;;;;;4955946;28;20474;-77
2022/05/15 09:38:30;;;;;;;3.00;2.80;;;;;;;;;;4954087;28;20483;-77
2022/05/15 09:44:10;;;;;;;3.17;2.87;;;;;;;;;;4894568;29;20430;-76
2022/05/15 09:46:39;;;;;;;3.30;3.00;;;;;;;;;;4878736;29;20831;-76
2022/05/15 09:49:07;;;;;;;4.20;3.00;;;;;;;;;;4910269;28;20467;-76
2022/05/15 09:51:39;;;;;;;6.20;3.10;;;;;;;;;;4953724;28;20477;-75
2022/05/15 09:54:05;;;;;;;2.80;2.53;;;;;;;;;;4936667;29;20461;-74
2022/05/15 09:56:34;;;;;;;3.30;3.00;;;;;;;;;;4935678;28;20423;-76
2022/05/15 09:59:08;;;;;;;4.03;3.20;;;;;;;;;;4933713;29;20498;-76
2022/05/15 10:01:36;;;;;;;3.63;3.00;;;;;;;;;;4953988;28;20447;-76
2022/05/15 10:04:04;;;;;;;3.47;3.17;;;;;;;;;;4972579;28;20446;-76
2022/05/15 10:06:31;;;;;;;2.90;2.57;;;;;;;;;;4972021;28;20449;-75
2022/05/15 10:09:10;;;;;;;2.77;2.57;;;;;;;;;;4954347;28;20450;-75
2022/05/15 10:11:39;;;;;;;3.60;3.27;;;;;;;;;;4955128;28;20525;-75
2022/05/15 10:14:07;;;;;;;3.57;3.00;;;;;;;;;;4972775;28;20450;-75
2022/05/15 10:16:35;;;;;;;3.80;2.43;;;;;;;;;;4955569;28;20470;-75
2022/05/15 10:19:05;;;;;;;3.10;2.80;;;;;;;;;;4953666;28;20835;-75
2022/05/15 10:21:35;;;;;;;4.20;2.87;;;;;;;;;;4969276;28;20458;-75
2022/05/15 10:24:05;;;;;;;3.27;2.53;;;;;;;;;;4957832;28;20451;-75
2022/05/15 10:26:34;;;;;;;3.50;2.93;;;;;;;;;;4952876;29;20439;-74
2022/05/15 10:29:07;;;;;;;3.37;2.67;;;;;;;;;;4966764;28;20968;-74
2022/05/15 10:31:36;;;;;;;4.70;3.30;;;;;;;;;;4958591;28;20546;-74
2022/05/15 10:34:03;;;;;;;3.20;2.90;;;;;;;;;;4948858;28;20490;-75
2022/05/15 10:36:39;;;;;;;3.87;2.73;;;;;;;;;;4954737;28;20470;-75
2022/05/15 10:39:09;;;;;;;3.10;2.80;;;;;;;;;;4971338;28;20482;-75
2022/05/15 10:41:41;;;;;;;2.60;2.40;;;;;;;;;;4938574;29;20450;-75
2022/05/15 10:44:14;;;;;;;3.40;2.90;;;;;;;;;;4952206;29;20432;-75
2022/05/15 10:46:45;;;;;;;3.70;2.53;;;;;;;;;;4951583;28;20517;-75
2022/05/15 10:49:21;;;;;;;2.57;2.30;;;;;;;;;;4965898;28;20462;-75
2022/05/15 10:51:52;;;;;;;4.33;2.60;;;;;;;;;;4941394;28;20482;-75
2022/05/15 10:57:25;;;;;;;3.20;2.20;;;;;;;;;;4948892;28;20442;-75
2022/05/15 10:59:55;;;;;;;3.30;2.53;;;;;;;;;;4969237;28;21062;-75
2022/05/15 11:02:40;;;;;;;3.33;3.03;;;;;;;;;;4946583;28;20469;-76
2022/05/15 11:05:09;;;;;;;3.30;3.00;;;;;;;;;;4951734;28;21020;-75
2022/05/15 11:07:39;;;;;;;3.57;2.97;;;;;;;;;;4968104;28;20542;-75
2022/05/15 11:10:09;;;;;;;4.00;3.23;;;;;;;;;;4966130;28;20473;-75
2022/05/15 11:12:41;;;;;;;4.40;3.40;;;;;;;;;;4938834;28;20479;-75
2022/05/15 11:15:16;;;;;;;2.97;2.77;;;;;;;;;;4935830;29;20925;-75
2022/05/15 11:17:47;;;;;;;4.50;3.40;;;;;;;;;;4958470;28;20490;-75
2022/05/15 11:20:17;;;;;;;3.73;2.90;;;;;;;;;;4941385;29;20550;-76
2022/05/15 11:22:45;;;;;;;3.07;2.60;;;;;;;;;;4952733;28;20460;-76
2022/05/15 11:25:14;;;;;;;3.60;3.00;;;;;;;;;;4955947;29;20830;-75
2022/05/15 11:27:44;;;;;;;3.47;3.17;;;;;;;;;;4959642;28;20863;-75
2022/05/15 11:30:14;;;;;;;3.30;2.70;;;;;;;;;;4957203;28;20486;-75
2022/05/15 11:32:42;;;;;;;3.17;2.87;;;;;;;;;;4975834;28;20509;-75
2022/05/15 11:35:14;;;;;;;3.50;2.90;;;;;;;;;;4956856;28;20569;-75
2022/05/15 11:37:43;;;;;;;3.13;2.83;;;;;;;;;;4953831;28;20506;-75
2022/05/15 11:40:11;;;;;;;5.43;3.23;;;;;;;;;;4957044;28;20528;-76
2022/05/15 11:42:37;;;;;;;4.10;3.30;;;;;;;;;;4974557;28;20430;-76
2022/05/15 11:45:18;;;;;;;3.40;3.10;;;;;;;;;;4972358;28;20454;-75
2022/05/15 11:47:58;;;;;;;3.80;3.30;;;;;;;;;;4953225;28;20954;-75
2022/05/15 11:50:32;;;;;;;3.43;2.93;;;;;;;;;;4974903;28;20431;-75
2022/05/15 11:53:03;;;;;;;3.70;3.30;;;;;;;;;;4957457;28;20452;-76
2022/05/15 11:55:48;;;;;;;4.13;3.53;;;;;;;;;;4959740;28;20459;-74
2022/05/15 11:58:23;;;;;;;4.63;3.10;;;;;;;;;;4973078;28;20589;-73
2022/05/15 12:00:59;;;;;;;3.57;3.27;;;;;;;;;;4975321;28;20442;-76
2022/05/15 12:03:44;;;;;;;3.60;3.20;;;;;;;;;;4949602;28;20537;-76
2022/05/15 12:06:12;;;;;;;2.70;2.50;;;;;;;;;;4973791;28;20509;-76
2022/05/15 12:08:40;;;;;;;3.27;2.97;;;;;;;;;;4956877;28;20446;-76
2022/05/15 12:11:21;;;;;;;3.33;2.90;;;;;;;;;;4956508;28;20546;-76
2022/05/15 12:13:48;;;;;;;3.27;2.97;;;;;;;;;;4935890;28;20485;-76
2022/05/15 12:16:16;;;;;;;5.53;3.20;;;;;;;;;;4961358;28;20450;-76
2022/05/15 12:18:46;;;;;;;3.03;2.80;;;;;;;;;;4951404;28;20580;-76
2022/05/15 12:21:15;;;;;;;3.90;3.13;;;;;;;;;;4949580;28;20484;-76
2022/05/15 12:24:26;;;;;;;3.77;3.23;;;;;;;;;;4974050;28;20515;-76
2022/05/15 12:26:34;;;;;;;4.67;3.13;;;;;;;;;;4956918;28;20438;-76
2022/05/15 12:29:04;;;;;;;3.10;2.53;;;;;;;;;;4961854;28;20450;-76
2022/05/15 12:31:33;;;;;;;3.40;2.77;;;;;;;;;;4937391;29;20456;-76
2022/05/15 12:34:06;;;;;;;3.07;2.80;;;;;;;;;;4945687;28;20545;-76
2022/05/15 12:36:34;;;;;;;3.20;2.90;;;;;;;;;;4971106;28;20452;-76
2022/05/15 12:39:01;;;;;;;3.47;2.77;;;;;;;;;;4966086;28;21012;-76
2022/05/15 12:41:32;;;;;;;3.50;3.20;;;;;;;;;;4956038;28;20462;-76
2022/05/15 12:44:01;;;;;;;4.30;3.67;;;;;;;;;;4956200;28;20435;-76
2022/05/15 12:46:29;;;;;;;3.03;2.77;;;;;;;;;;4968185;28;20559;-76
2022/05/15 12:48:56;;;;;;;3.83;3.10;;;;;;;;;;4945666;29;20451;-76
2022/05/15 12:51:28;;;;;;;3.07;2.87;;;;;;;;;;4974293;28;20509;-76
2022/05/15 12:53:54;;;;;;;3.57;3.30;;;;;;;;;;4973052;28;20418;-76
2022/05/15 12:56:24;;;;;;;4.93;3.13;;;;;;;;;;4946140;28;20490;-76
2022/05/15 12:58:52;;;;;;;2.80;2.60;;;;;;;;;;4971438;28;20489;-76
2022/05/15 13:01:19;;;;;;;6.03;2.73;;;;;;;;;;4957207;28;20450;-76
2022/05/15 13:03:49;;;;;;;5.60;3.10;;;;;;;;;;4951280;28;20451;-76
2022/05/15 13:06:18;;;;;;;5.13;3.30;;;;;;;;;;4938998;29;20797;-76
2022/05/15 13:08:46;;;;;;;3.50;3.20;;;;;;;;;;4934907;28;20822;-76
2022/05/15 13:11:16;;;;;;;2.87;2.40;;;;;;;;;;4969922;28;20450;-76
2022/05/15 13:13:43;;;;;;;5.10;2.87;;;;;;;;;;4972504;28;20493;-76
2022/05/15 13:16:15;;;;;;;5.00;2.90;;;;;;;;;;4973655;28;20481;-76
2022/05/15 13:18:44;;;;;;;2.77;2.57;;;;;;;;;;4970119;28;20807;-76
2022/05/15 13:21:11;;;;;;;6.00;2.90;;;;;;;;;;4946059;29;20457;-76
2022/05/15 13:23:40;;;;;;;4.53;2.97;;;;;;;;;;4959930;28;20802;-76
2022/05/15 13:26:10;;;;;;;3.33;2.90;;;;;;;;;;4973356;28;20441;-75
2022/05/15 13:28:37;;;;;;;3.13;2.83;;;;;;;;;;4964095;28;21207;-75
2022/05/15 13:31:03;;;;;;;4.83;2.60;;;;;;;;;;4955507;28;20795;-74
2022/05/15 13:33:32;;;;;;;4.50;2.90;;;;;;;;;;4964554;28;20538;-76
2022/05/15 13:36:00;;;;;;;3.33;3.03;;;;;;;;;;4966732;28;20455;-76
2022/05/15 13:38:29;;;;;;;3.20;2.90;;;;;;;;;;4953717;28;20494;-76
2022/05/15 13:43:51;;;;;;;3.90;2.90;;;;;;;;;;4953261;28;20419;-75
2022/05/15 13:46:20;;;;;;;5.67;3.20;;;;;;;;;;4949076;28;20477;-75
2022/05/15 13:48:57;;;;;;;4.10;3.03;;;;;;;;;;4933359;28;20435;-75
2022/05/15 13:51:32;;;;;;;4.23;2.93;;;;;;;;;;4951801;28;20464;-75
2022/05/15 13:54:06;;;;;;;3.37;2.90;;;;;;;;;;4952238;28;20517;-75
2022/05/15 13:56:39;;;;;;;2.90;2.60;;;;;;;;;;4966796;28;20463;-75
2022/05/15 13:59:28;;;;;;;5.70;2.90;;;;;;;;;;4965203;28;20850;-76
2022/05/15 14:02:04;;;;;;;3.40;3.10;;;;;;;;;;4936311;28;20995;-75
2022/05/15 14:04:31;;;;;;;3.07;2.67;;;;;;;;;;4967152;28;20446;-75
2022/05/15 14:06:58;;;;;;;3.00;2.70;;;;;;;;;;4956551;28;20438;-76
2022/05/15 14:09:26;;;;;;;4.37;2.93;;;;;;;;;;4949616;28;20454;-75
2022/05/15 14:11:54;;;;;;;3.57;3.27;;;;;;;;;;4950414;28;20492;-76
2022/05/15 14:14:36;;;;;;;3.00;2.70;;;;;;;;;;4952806;28;20960;-75
2022/05/15 14:17:05;;;;;;;5.00;2.80;;;;;;;;;;4965619;28;20454;-75
2022/05/15 14:19:31;;;;;;;3.47;2.57;;;;;;;;;;4965782;28;20497;-74
2022/05/15 14:21:59;;;;;;;3.63;2.87;;;;;;;;;;4952172;28;20454;-76
2022/05/15 14:24:25;;;;;;;3.60;3.20;;;;;;;;;;4952022;28;20430;-75
2022/05/15 14:26:52;;;;;;;5.37;2.97;;;;;;;;;;4952523;28;20442;-75
2022/05/15 14:29:19;;;;;;;4.30;2.63;;;;;;;;;;4958344;28;20803;-75
2022/05/15 14:31:46;;;;;;;3.47;2.70;;;;;;;;;;4951502;28;20449;-75
2022/05/15 14:34:14;;;;;;;5.00;3.47;;;;;;;;;;4969813;28;20431;-75
2022/05/15 14:36:41;;;;;;;3.13;2.80;;;;;;;;;;4967995;28;20580;-75
2022/05/15 14:39:08;;;;;;;2.83;2.50;;;;;;;;;;4954640;28;20476;-75
2022/05/15 14:41:34;;;;;;;2.90;2.70;;;;;;;;;;4969420;28;20451;-76
2022/05/15 14:44:01;;;;;;;2.90;2.70;;;;;;;;;;4952723;28;20869;-76
2022/05/15 14:46:29;;;;;;;2.77;2.50;;;;;;;;;;4965211;28;20462;-76
2022/05/15 14:48:58;;;;;;;4.20;3.30;;;;;;;;;;4936268;28;20443;-75
2022/05/15 14:51:27;;;;;;;3.20;2.93;;;;;;;;;;4968703;28;20541;-75
2022/05/15 14:53:54;;;;;;;3.57;3.27;;;;;;;;;;4969221;28;20438;-75
2022/05/15 14:56:22;;;;;;;3.43;3.13;;;;;;;;;;4958757;28;20447;-75
2022/05/15 14:58:51;;;;;;;3.03;2.83;;;;;;;;;;4956033;28;20475;-75
2022/05/15 15:01:18;;;;;;;3.17;2.87;;;;;;;;;;4954398;29;20569;-76
2022/05/15 15:03:45;;;;;;;2.87;2.57;;;;;;;;;;4918766;28;20447;-76
2022/05/15 15:06:11;;;;;;;3.10;2.63;;;;;;;;;;4940249;29;20578;-76
2022/05/15 15:08:39;;;;;;;2.80;2.60;;;;;;;;;;4949826;29;20513;-75